sensor_id;sensor_type;location;lat;lon;timestamp;temperature;humidity
67890;DHT22;54685;52.082;5.426;2023-07-02T00:00:04;17.30;99.90
67890;DHT22;54685;52.082;5.426;2023-07-02T00:02:35;17.10;99.90
67890;DHT22;54685;52.082;5.426;2023-07-02T00:05:02;16.90;99.90
67890;DHT22;54685;52.082;5.426;2023-07-02T00:07:29;16.80;99.90
67890;DHT22;54685;52.082;5.426;2023-07-02T00:09:56;16.80;99.90
67890;DHT22;54685;52.082;5.426;2023-07-02T00:12:22;16.70;99.90
67890;DHT22;54685;52.082;5.426;2023-07-02T00:14:49;16.70;99.90
67890;DHT22;54685;52.082;5.426;2023-07-02T00:17:20;16.70;99.90
67890;DHT22;54685;52.082;5.426;2023-07-02T00:19:47;16.60;99.90
67890;DHT22;54685;52.082;5.426;2023-07-02T00:22:19;16.60;99.90
67890;DHT22;54685;52.082;5.426;2023-07-02T00:24:46;16.60;99.90
67890;DHT22;54685;52.082;5.426;2023-07-02T00:27:12;16.60;99.90
67890;DHT22;54685;52.082;5.426;2023-07-02T00:29:39;16.70;99.90
67890;DHT22;54685;52.082;5.426;2023-07-02T00:32:06;16.60;99.90
67890;DHT22;54685;52.082;5.426;2023-07-02T00:34:33;16.60;99.90
67890;DHT22;54685;52.082;5.426;2023-07-02T00:37:00;16.60;99.90
67890;DHT22;54685;52.082;5.426;2023-07-02T00:39:27;16.60;99.90
67890;DHT22;54685;52.082;5.426;2023-07-02T00:41:53;16.50;99.90
67890;DHT22;54685;52.082;5.426;2023-07-02T00:44:21;16.50;99.90
67890;DHT22;54685;52.082;5.426;2023-07-02T00:46:50;16.50;99.90
67890;DHT22;54685;52.082;5.426;2023-07-02T00:49:18;16.50;99.90
67890;DHT22;54685;52.082;5.426;2023-07-02T00:51:45;16.50;99.90
67890;DHT22;54685;52.082;5.426;2023-07-02T00:54:12;16.50;99.90
67890;DHT22;54685;52.082;5.426;2023-07-02T00:56:39;16.40;99.90
67890;DHT22;54685;52.082;5.426;2023-07-02T00:59:05;16.40;99.90
67890;DHT22;54685;52.082;5.426;2023-07-02T01:01:33;16.30;99.90
67890;DHT22;54685;52.082;5.426;2023-07-02T01:04:06;16.30;99.90
67890;DHT22;54685;52.082;5.426;2023-07-02T01:06:36;16.20;99.90
67890;DHT22;54685;52.082;5.426;2023-07-02T01:09:04;16.20;99.90
67890;DHT22;54685;52.082;5.426;2023-07-02T01:11:40;16.10;99.90
67890;DHT22;54685;52.082;5.426;2023-07-02T01:14:14;16.10;99.90
67890;DHT22;54685;52.082;5.426;2023-07-02T01:16:43;16.00;99.90
67890;DHT22;54685;52.082;5.426;2023-07-02T01:19:19;15.90;99.90
67890;DHT22;54685;52.082;5.426;2023-07-02T01:21:49;15.90;99.90
67890;DHT22;54685;52.082;5.426;2023-07-02T01:24:17;15.90;99.90
67890;DHT22;54685;52.082;5.426;2023-07-02T01:26:44;15.90;99.90
67890;DHT22;54685;52.082;5.426;2023-07-02T01:29:16;15.90;99.90
67890;DHT22;54685;52.082;5.426;2023-07-02T01:31:44;15.90;99.90
67890;DHT22;54685;52.082;5.426;2023-07-02T01:34:12;15.90;99.90
67890;DHT22;54685;52.082;5.426;2023-07-02T01:36:40;15.80;99.90
67890;DHT22;54685;52.082;5.426;2023-07-02T01:39:07;15.80;99.90
67890;DHT22;54685;52.082;5.426;2023-07-02T01:41:42;15.80;99.90
67890;DHT22;54685;52.082;5.426;2023-07-02T01:44:09;15.80;99.90
67890;DHT22;54685;52.082;5.426;2023-07-02T01:46:37;15.70;99.90
67890;DHT22;54685;52.082;5.426;2023-07-02T01:49:04;15.70;99.90
67890;DHT22;54685;52.082;5.426;2023-07-02T01:51:32;15.70;99.90
67890;DHT22;54685;52.082;5.426;2023-07-02T01:53:58;15.60;99.90
67890;DHT22;54685;52.082;5.426;2023-07-02T01:56:25;15.60;99.90
67890;DHT22;54685;52.082;5.426;2023-07-02T01:58:53;15.50;99.90
67890;DHT22;54685;52.082;5.426;2023-07-02T02:01:20;15.60;99.90
67890;DHT22;54685;52.082;5.426;2023-07-02T02:03:47;15.50;99.90
67890;DHT22;54685;52.082;5.426;2023-07-02T02:06:14;15.40;99.90
67890;DHT22;54685;52.082;5.426;2023-07-02T02:08:40;15.40;99.90
67890;DHT22;54685;52.082;5.426;2023-07-02T02:11:10;15.30;99.90
67890;DHT22;54685;52.082;5.426;2023-07-02T02:13:36;15.30;99.90
67890;DHT22;54685;52.082;5.426;2023-07-02T02:16:03;15.30;99.90
67890;DHT22;54685;52.082;5.426;2023-07-02T02:18:30;15.20;99.90
67890;DHT22;54685;52.082;5.426;2023-07-02T02:20:57;15.20;99.90
67890;DHT22;54685;52.082;5.426;2023-07-02T02:23:24;15.20;99.90
67890;DHT22;54685;52.082;5.426;2023-07-02T02:25:51;15.20;99.90
67890;DHT22;54685;52.082;5.426;2023-07-02T02:28:17;15.20;99.90
67890;DHT22;54685;52.082;5.426;2023-07-02T02:30:44;15.20;99.90
67890;DHT22;54685;52.082;5.426;2023-07-02T02:33:12;15.20;99.90
67890;DHT22;54685;52.082;5.426;2023-07-02T02:35:39;15.20;99.90
67890;DHT22;54685;52.082;5.426;2023-07-02T02:38:06;15.20;99.90
67890;DHT22;54685;52.082;5.426;2023-07-02T02:40:33;15.20;99.90
67890;DHT22;54685;52.082;5.426;2023-07-02T02:43:02;15.20;99.90
67890;DHT22;54685;52.082;5.426;2023-07-02T02:45:29;15.10;99.90
67890;DHT22;54685;52.082;5.426;2023-07-02T02:47:56;15.10;99.90
67890;DHT22;54685;52.082;5.426;2023-07-02T02:50:23;15.10;99.90
67890;DHT22;54685;52.082;5.426;2023-07-02T02:52:50;15.10;99.90
67890;DHT22;54685;52.082;5.426;2023-07-02T02:55:16;15.00;99.90
67890;DHT22;54685;52.082;5.426;2023-07-02T02:57:43;15.00;99.90
67890;DHT22;54685;52.082;5.426;2023-07-02T03:00:10;15.00;99.90
67890;DHT22;54685;52.082;5.426;2023-07-02T03:02:38;14.90;99.90
67890;DHT22;54685;52.082;5.426;2023-07-02T03:05:06;14.90;99.90
67890;DHT22;54685;52.082;5.426;2023-07-02T03:07:33;14.90;99.90
67890;DHT22;54685;52.082;5.426;2023-07-02T03:10:00;14.90;99.90
67890;DHT22;54685;52.082;5.426;2023-07-02T03:12:28;14.90;99.90
67890;DHT22;54685;52.082;5.426;2023-07-02T03:14:55;14.90;99.90
67890;DHT22;54685;52.082;5.426;2023-07-02T03:17:22;14.90;99.90
67890;DHT22;54685;52.082;5.426;2023-07-02T03:19:49;14.90;99.90
67890;DHT22;54685;52.082;5.426;2023-07-02T03:22:16;14.90;99.90
67890;DHT22;54685;52.082;5.426;2023-07-02T03:24:43;14.90;99.90
67890;DHT22;54685;52.082;5.426;2023-07-02T03:27:10;14.90;99.90
67890;DHT22;54685;52.082;5.426;2023-07-02T03:29:37;14.90;99.90
67890;DHT22;54685;52.082;5.426;2023-07-02T03:32:05;14.90;99.90
67890;DHT22;54685;52.082;5.426;2023-07-02T03:34:32;14.90;99.90
67890;DHT22;54685;52.082;5.426;2023-07-02T03:36:59;14.80;99.90
67890;DHT22;54685;52.082;5.426;2023-07-02T03:39:26;14.70;99.90
67890;DHT22;54685;52.082;5.426;2023-07-02T03:41:53;14.70;99.90
67890;DHT22;54685;52.082;5.426;2023-07-02T03:44:20;14.70;99.90
67890;DHT22;54685;52.082;5.426;2023-07-02T03:46:47;14.70;99.90
67890;DHT22;54685;52.082;5.426;2023-07-02T03:49:14;14.70;99.90
67890;DHT22;54685;52.082;5.426;2023-07-02T03:51:40;14.60;99.90
67890;DHT22;54685;52.082;5.426;2023-07-02T03:54:07;14.60;99.90
67890;DHT22;54685;52.082;5.426;2023-07-02T03:56:34;14.60;99.90
67890;DHT22;54685;52.082;5.426;2023-07-02T03:59:01;14.60;99.90
67890;DHT22;54685;52.082;5.426;2023-07-02T04:01:28;14.60;99.90
67890;DHT22;54685;52.082;5.426;2023-07-02T04:03:56;14.60;99.90
67890;DHT22;54685;52.082;5.426;2023-07-02T04:06:23;14.60;99.90
67890;DHT22;54685;52.082;5.426;2023-07-02T04:08:50;14.60;99.90
67890;DHT22;54685;52.082;5.426;2023-07-02T04:11:17;14.60;99.90
67890;DHT22;54685;52.082;5.426;2023-07-02T04:13:44;14.50;99.90
67890;DHT22;54685;52.082;5.426;2023-07-02T04:16:10;14.50;99.90
67890;DHT22;54685;52.082;5.426;2023-07-02T04:18:37;14.50;99.90
67890;DHT22;54685;52.082;5.426;2023-07-02T04:21:04;14.40;99.90
67890;DHT22;54685;52.082;5.426;2023-07-02T04:23:31;14.50;99.90
67890;DHT22;54685;52.082;5.426;2023-07-02T04:25:58;14.50;99.90
67890;DHT22;54685;52.082;5.426;2023-07-02T04:28:45;14.50;99.90
67890;DHT22;54685;52.082;5.426;2023-07-02T04:31:11;14.50;99.90
67890;DHT22;54685;52.082;5.426;2023-07-02T04:33:39;14.50;99.90
67890;DHT22;54685;52.082;5.426;2023-07-02T04:36:06;14.50;99.90
67890;DHT22;54685;52.082;5.426;2023-07-02T04:38:33;14.50;99.90
67890;DHT22;54685;52.082;5.426;2023-07-02T04:41:00;14.50;99.90
67890;DHT22;54685;52.082;5.426;2023-07-02T04:43:32;14.50;99.90
67890;DHT22;54685;52.082;5.426;2023-07-02T04:46:00;14.50;99.90
67890;DHT22;54685;52.082;5.426;2023-07-02T04:48:28;14.50;99.90
67890;DHT22;54685;52.082;5.426;2023-07-02T04:50:55;14.50;99.90
67890;DHT22;54685;52.082;5.426;2023-07-02T04:53:21;14.60;99.90
67890;DHT22;54685;52.082;5.426;2023-07-02T04:55:48;14.60;99.90
67890;DHT22;54685;52.082;5.426;2023-07-02T04:58:15;14.70;99.90
67890;DHT22;54685;52.082;5.426;2023-07-02T05:00:42;14.60;99.90
67890;DHT22;54685;52.082;5.426;2023-07-02T05:03:09;14.70;99.90
67890;DHT22;54685;52.082;5.426;2023-07-02T05:05:36;14.70;99.90
67890;DHT22;54685;52.082;5.426;2023-07-02T05:08:03;14.70;99.90
67890;DHT22;54685;52.082;5.426;2023-07-02T05:10:31;14.80;99.90
67890;DHT22;54685;52.082;5.426;2023-07-02T05:12:58;14.90;99.90
67890;DHT22;54685;52.082;5.426;2023-07-02T05:15:25;14.90;99.90
67890;DHT22;54685;52.082;5.426;2023-07-02T05:17:52;14.90;99.90
67890;DHT22;54685;52.082;5.426;2023-07-02T05:20:19;15.00;99.90
67890;DHT22;54685;52.082;5.426;2023-07-02T05:22:46;15.00;99.90
67890;DHT22;54685;52.082;5.426;2023-07-02T05:25:13;15.00;99.90
67890;DHT22;54685;52.082;5.426;2023-07-02T05:27:40;15.00;99.90
67890;DHT22;54685;52.082;5.426;2023-07-02T05:30:07;15.00;99.90
67890;DHT22;54685;52.082;5.426;2023-07-02T05:32:34;15.10;99.90
67890;DHT22;54685;52.082;5.426;2023-07-02T05:35:01;15.10;99.90
67890;DHT22;54685;52.082;5.426;2023-07-02T05:37:28;15.10;99.90
67890;DHT22;54685;52.082;5.426;2023-07-02T05:39:55;15.10;99.90
67890;DHT22;54685;52.082;5.426;2023-07-02T05:42:22;15.10;99.90
67890;DHT22;54685;52.082;5.426;2023-07-02T05:44:49;15.10;99.90
67890;DHT22;54685;52.082;5.426;2023-07-02T05:47:16;15.20;99.90
67890;DHT22;54685;52.082;5.426;2023-07-02T05:49:43;15.20;99.90
67890;DHT22;54685;52.082;5.426;2023-07-02T05:52:10;15.20;99.90
67890;DHT22;54685;52.082;5.426;2023-07-02T05:54:40;15.30;99.90
67890;DHT22;54685;52.082;5.426;2023-07-02T05:57:07;15.30;99.90
67890;DHT22;54685;52.082;5.426;2023-07-02T05:59:34;15.30;99.90
67890;DHT22;54685;52.082;5.426;2023-07-02T06:02:01;15.30;99.90
67890;DHT22;54685;52.082;5.426;2023-07-02T06:04:28;15.40;99.90
67890;DHT22;54685;52.082;5.426;2023-07-02T06:06:55;15.40;99.90
67890;DHT22;54685;52.082;5.426;2023-07-02T06:09:21;15.50;99.90
67890;DHT22;54685;52.082;5.426;2023-07-02T06:11:48;15.50;99.90
67890;DHT22;54685;52.082;5.426;2023-07-02T06:14:15;15.60;99.90
67890;DHT22;54685;52.082;5.426;2023-07-02T06:16:42;15.60;99.90
67890;DHT22;54685;52.082;5.426;2023-07-02T06:19:09;15.70;99.90
67890;DHT22;54685;52.082;5.426;2023-07-02T06:21:36;15.70;99.90
67890;DHT22;54685;52.082;5.426;2023-07-02T06:24:03;15.70;99.90
67890;DHT22;54685;52.082;5.426;2023-07-02T06:26:30;15.80;99.90
67890;DHT22;54685;52.082;5.426;2023-07-02T06:28:59;15.80;99.90
67890;DHT22;54685;52.082;5.426;2023-07-02T06:31:26;15.80;99.90
67890;DHT22;54685;52.082;5.426;2023-07-02T06:33:53;16.00;99.90
67890;DHT22;54685;52.082;5.426;2023-07-02T06:36:20;16.00;99.90
67890;DHT22;54685;52.082;5.426;2023-07-02T06:38:47;16.10;99.90
67890;DHT22;54685;52.082;5.426;2023-07-02T06:41:14;16.10;99.90
67890;DHT22;54685;52.082;5.426;2023-07-02T06:43:44;16.10;99.90
67890;DHT22;54685;52.082;5.426;2023-07-02T06:46:11;16.10;99.90
67890;DHT22;54685;52.082;5.426;2023-07-02T06:48:39;16.20;99.90
67890;DHT22;54685;52.082;5.426;2023-07-02T06:51:06;16.30;99.90
67890;DHT22;54685;52.082;5.426;2023-07-02T06:53:35;16.40;99.90
67890;DHT22;54685;52.082;5.426;2023-07-02T06:56:02;16.50;99.90
67890;DHT22;54685;52.082;5.426;2023-07-02T06:58:30;16.50;99.90
67890;DHT22;54685;52.082;5.426;2023-07-02T07:00:56;16.50;99.90
67890;DHT22;54685;52.082;5.426;2023-07-02T07:03:23;16.50;99.90
67890;DHT22;54685;52.082;5.426;2023-07-02T07:05:51;16.50;99.90
67890;DHT22;54685;52.082;5.426;2023-07-02T07:08:18;16.50;99.90
67890;DHT22;54685;52.082;5.426;2023-07-02T07:10:44;16.60;99.90
67890;DHT22;54685;52.082;5.426;2023-07-02T07:13:12;16.70;99.90
67890;DHT22;54685;52.082;5.426;2023-07-02T07:15:39;16.70;99.90
67890;DHT22;54685;52.082;5.426;2023-07-02T07:18:09;16.70;99.90
67890;DHT22;54685;52.082;5.426;2023-07-02T07:20:38;16.80;99.90
67890;DHT22;54685;52.082;5.426;2023-07-02T07:23:05;16.90;99.90
67890;DHT22;54685;52.082;5.426;2023-07-02T07:25:35;17.00;99.90
67890;DHT22;54685;52.082;5.426;2023-07-02T07:28:02;17.00;99.90
67890;DHT22;54685;52.082;5.426;2023-07-02T07:30:29;17.00;99.90
67890;DHT22;54685;52.082;5.426;2023-07-02T07:32:59;17.10;99.90
67890;DHT22;54685;52.082;5.426;2023-07-02T07:35:26;17.20;99.90
67890;DHT22;54685;52.082;5.426;2023-07-02T07:37:52;17.30;99.90
67890;DHT22;54685;52.082;5.426;2023-07-02T07:40:19;17.30;99.90
67890;DHT22;54685;52.082;5.426;2023-07-02T07:42:46;17.40;99.50
67890;DHT22;54685;52.082;5.426;2023-07-02T07:45:13;17.40;99.90
67890;DHT22;54685;52.082;5.426;2023-07-02T07:47:40;17.40;98.10
67890;DHT22;54685;52.082;5.426;2023-07-02T07:50:08;17.50;97.40
67890;DHT22;54685;52.082;5.426;2023-07-02T07:52:38;17.50;98.60
67890;DHT22;54685;52.082;5.426;2023-07-02T07:55:08;17.50;98.50
67890;DHT22;54685;52.082;5.426;2023-07-02T07:57:36;17.50;97.90
67890;DHT22;54685;52.082;5.426;2023-07-02T08:00:04;17.50;98.80
67890;DHT22;54685;52.082;5.426;2023-07-02T08:02:42;17.50;97.90
67890;DHT22;54685;52.082;5.426;2023-07-02T08:05:09;17.50;98.30
67890;DHT22;54685;52.082;5.426;2023-07-02T08:07:36;17.60;98.70
67890;DHT22;54685;52.082;5.426;2023-07-02T08:10:03;17.80;97.00
67890;DHT22;54685;52.082;5.426;2023-07-02T08:12:30;17.80;95.40
67890;DHT22;54685;52.082;5.426;2023-07-02T08:14:57;17.80;93.50
67890;DHT22;54685;52.082;5.426;2023-07-02T08:17:24;17.80;92.70
67890;DHT22;54685;52.082;5.426;2023-07-02T08:19:51;17.70;82.60
67890;DHT22;54685;52.082;5.426;2023-07-02T08:22:18;17.70;81.60
67890;DHT22;54685;52.082;5.426;2023-07-02T08:24:45;17.60;86.00
67890;DHT22;54685;52.082;5.426;2023-07-02T08:27:11;17.70;85.50
67890;DHT22;54685;52.082;5.426;2023-07-02T08:29:40;17.80;83.10
67890;DHT22;54685;52.082;5.426;2023-07-02T08:32:07;18.00;76.90
67890;DHT22;54685;52.082;5.426;2023-07-02T08:34:35;18.10;78.70
67890;DHT22;54685;52.082;5.426;2023-07-02T08:37:02;18.20;78.70
67890;DHT22;54685;52.082;5.426;2023-07-02T08:39:28;18.30;78.90
67890;DHT22;54685;52.082;5.426;2023-07-02T08:41:55;18.30;78.20
67890;DHT22;54685;52.082;5.426;2023-07-02T08:44:22;18.50;83.30
67890;DHT22;54685;52.082;5.426;2023-07-02T08:46:50;18.50;81.30
67890;DHT22;54685;52.082;5.426;2023-07-02T08:49:19;18.60;76.30
67890;DHT22;54685;52.082;5.426;2023-07-02T08:51:46;18.70;75.00
67890;DHT22;54685;52.082;5.426;2023-07-02T08:54:14;18.80;65.80
67890;DHT22;54685;52.082;5.426;2023-07-02T08:56:41;18.90;63.70
67890;DHT22;54685;52.082;5.426;2023-07-02T08:59:09;18.90;66.10
67890;DHT22;54685;52.082;5.426;2023-07-02T09:02:05;18.90;64.40
67890;DHT22;54685;52.082;5.426;2023-07-02T09:04:32;18.90;65.90
67890;DHT22;54685;52.082;5.426;2023-07-02T09:07:08;18.90;63.30
67890;DHT22;54685;52.082;5.426;2023-07-02T09:09:45;18.90;65.50
67890;DHT22;54685;52.082;5.426;2023-07-02T09:12:23;18.90;61.10
67890;DHT22;54685;52.082;5.426;2023-07-02T09:14:59;19.10;63.00
67890;DHT22;54685;52.082;5.426;2023-07-02T09:17:33;19.00;63.10
67890;DHT22;54685;52.082;5.426;2023-07-02T09:20:02;19.00;64.60
67890;DHT22;54685;52.082;5.426;2023-07-02T09:22:31;18.90;67.10
67890;DHT22;54685;52.082;5.426;2023-07-02T09:24:59;18.90;65.20
67890;DHT22;54685;52.082;5.426;2023-07-02T09:27:34;19.00;65.70
67890;DHT22;54685;52.082;5.426;2023-07-02T09:30:09;19.10;66.50
67890;DHT22;54685;52.082;5.426;2023-07-02T09:32:37;19.30;67.70
67890;DHT22;54685;52.082;5.426;2023-07-02T09:35:05;19.50;68.60
67890;DHT22;54685;52.082;5.426;2023-07-02T09:37:32;19.80;68.30
67890;DHT22;54685;52.082;5.426;2023-07-02T09:40:00;19.90;66.10
67890;DHT22;54685;52.082;5.426;2023-07-02T09:42:28;19.90;64.00
67890;DHT22;54685;52.082;5.426;2023-07-02T09:44:55;20.10;64.40
67890;DHT22;54685;52.082;5.426;2023-07-02T09:47:43;20.30;59.50
67890;DHT22;54685;52.082;5.426;2023-07-02T09:50:14;20.50;55.20
67890;DHT22;54685;52.082;5.426;2023-07-02T09:52:44;20.50;57.10
67890;DHT22;54685;52.082;5.426;2023-07-02T09:55:12;20.50;55.00
67890;DHT22;54685;52.082;5.426;2023-07-02T09:57:39;20.60;54.70
67890;DHT22;54685;52.082;5.426;2023-07-02T10:00:07;20.90;56.10
67890;DHT22;54685;52.082;5.426;2023-07-02T10:02:37;20.90;53.70
67890;DHT22;54685;52.082;5.426;2023-07-02T10:05:05;20.90;52.60
67890;DHT22;54685;52.082;5.426;2023-07-02T10:07:32;20.90;52.40
67890;DHT22;54685;52.082;5.426;2023-07-02T10:10:00;20.90;51.70
67890;DHT22;54685;52.082;5.426;2023-07-02T10:12:29;20.70;49.90
67890;DHT22;54685;52.082;5.426;2023-07-02T10:14:57;20.60;50.50
67890;DHT22;54685;52.082;5.426;2023-07-02T10:17:30;20.80;50.20
67890;DHT22;54685;52.082;5.426;2023-07-02T10:20:03;21.00;50.30
67890;DHT22;54685;52.082;5.426;2023-07-02T10:22:50;21.30;48.90
67890;DHT22;54685;52.082;5.426;2023-07-02T10:25:31;21.70;47.10
67890;DHT22;54685;52.082;5.426;2023-07-02T10:27:59;21.90;43.10
67890;DHT22;54685;52.082;5.426;2023-07-02T10:30:37;21.80;43.20
67890;DHT22;54685;52.082;5.426;2023-07-02T10:33:10;22.00;43.70
67890;DHT22;54685;52.082;5.426;2023-07-02T10:35:37;22.20;44.00
67890;DHT22;54685;52.082;5.426;2023-07-02T10:38:05;22.20;40.80
67890;DHT22;54685;52.082;5.426;2023-07-02T10:40:34;22.00;41.80
67890;DHT22;54685;52.082;5.426;2023-07-02T10:43:01;22.20;42.90
67890;DHT22;54685;52.082;5.426;2023-07-02T10:45:32;22.60;42.60
67890;DHT22;54685;52.082;5.426;2023-07-02T10:47:59;22.80;41.20
67890;DHT22;54685;52.082;5.426;2023-07-02T10:50:27;23.00;40.10
67890;DHT22;54685;52.082;5.426;2023-07-02T10:52:54;23.30;42.80
67890;DHT22;54685;52.082;5.426;2023-07-02T10:55:23;23.50;39.60
67890;DHT22;54685;52.082;5.426;2023-07-02T10:58:01;23.40;39.00
67890;DHT22;54685;52.082;5.426;2023-07-02T11:00:29;23.40;38.50
67890;DHT22;54685;52.082;5.426;2023-07-02T11:02:56;23.40;38.60
67890;DHT22;54685;52.082;5.426;2023-07-02T11:05:23;23.60;39.60
67890;DHT22;54685;52.082;5.426;2023-07-02T11:07:53;23.70;40.10
67890;DHT22;54685;52.082;5.426;2023-07-02T11:10:24;23.70;39.70
67890;DHT22;54685;52.082;5.426;2023-07-02T11:12:51;23.40;40.30
67890;DHT22;54685;52.082;5.426;2023-07-02T11:15:18;23.10;39.80
67890;DHT22;54685;52.082;5.426;2023-07-02T11:17:46;22.80;40.00
67890;DHT22;54685;52.082;5.426;2023-07-02T11:20:14;22.50;41.40
67890;DHT22;54685;52.082;5.426;2023-07-02T11:22:42;22.20;40.80
67890;DHT22;54685;52.082;5.426;2023-07-02T11:25:20;21.90;41.60
67890;DHT22;54685;52.082;5.426;2023-07-02T11:27:47;22.00;42.10
67890;DHT22;54685;52.082;5.426;2023-07-02T11:30:14;22.20;40.70
67890;DHT22;54685;52.082;5.426;2023-07-02T11:32:49;22.40;41.00
67890;DHT22;54685;52.082;5.426;2023-07-02T11:35:16;22.70;40.60
67890;DHT22;54685;52.082;5.426;2023-07-02T11:37:44;22.80;40.40
67890;DHT22;54685;52.082;5.426;2023-07-02T11:40:11;22.80;40.30
67890;DHT22;54685;52.082;5.426;2023-07-02T11:42:40;22.60;40.60
67890;DHT22;54685;52.082;5.426;2023-07-02T11:45:07;22.40;41.40
67890;DHT22;54685;52.082;5.426;2023-07-02T11:47:34;22.30;42.10
67890;DHT22;54685;52.082;5.426;2023-07-02T11:50:02;22.10;41.00
67890;DHT22;54685;52.082;5.426;2023-07-02T11:52:46;22.20;41.60
67890;DHT22;54685;52.082;5.426;2023-07-02T11:55:13;22.50;40.90
67890;DHT22;54685;52.082;5.426;2023-07-02T11:57:41;22.70;38.90
67890;DHT22;54685;52.082;5.426;2023-07-02T12:00:08;22.70;38.80
67890;DHT22;54685;52.082;5.426;2023-07-02T12:02:35;22.60;38.90
67890;DHT22;54685;52.082;5.426;2023-07-02T12:05:02;22.60;38.50
67890;DHT22;54685;52.082;5.426;2023-07-02T12:07:34;22.40;38.50
67890;DHT22;54685;52.082;5.426;2023-07-02T12:10:01;22.20;38.10
67890;DHT22;54685;52.082;5.426;2023-07-02T12:12:28;22.10;38.20
67890;DHT22;54685;52.082;5.426;2023-07-02T12:14:55;21.90;38.70
67890;DHT22;54685;52.082;5.426;2023-07-02T12:17:22;21.90;38.90
67890;DHT22;54685;52.082;5.426;2023-07-02T12:19:49;22.10;39.30
67890;DHT22;54685;52.082;5.426;2023-07-02T12:22:16;22.60;40.10
67890;DHT22;54685;52.082;5.426;2023-07-02T12:24:44;22.80;39.30
67890;DHT22;54685;52.082;5.426;2023-07-02T12:27:11;22.90;38.40
67890;DHT22;54685;52.082;5.426;2023-07-02T12:29:38;22.70;36.90
67890;DHT22;54685;52.082;5.426;2023-07-02T12:32:08;22.70;38.30
67890;DHT22;54685;52.082;5.426;2023-07-02T12:34:35;22.50;38.90
67890;DHT22;54685;52.082;5.426;2023-07-02T12:37:04;22.50;39.80
67890;DHT22;54685;52.082;5.426;2023-07-02T12:39:32;22.40;40.00
67890;DHT22;54685;52.082;5.426;2023-07-02T12:41:59;22.40;40.00
67890;DHT22;54685;52.082;5.426;2023-07-02T12:44:26;22.30;40.10
67890;DHT22;54685;52.082;5.426;2023-07-02T12:46:53;22.10;39.60
67890;DHT22;54685;52.082;5.426;2023-07-02T12:49:20;22.10;39.60
67890;DHT22;54685;52.082;5.426;2023-07-02T12:51:47;22.10;39.60
67890;DHT22;54685;52.082;5.426;2023-07-02T12:54:14;21.90;39.40
67890;DHT22;54685;52.082;5.426;2023-07-02T12:56:42;21.90;38.70
67890;DHT22;54685;52.082;5.426;2023-07-02T12:59:09;22.10;39.30
67890;DHT22;54685;52.082;5.426;2023-07-02T13:01:35;22.10;37.70
67890;DHT22;54685;52.082;5.426;2023-07-02T13:04:02;22.00;38.50
67890;DHT22;54685;52.082;5.426;2023-07-02T13:06:30;22.10;39.60
67890;DHT22;54685;52.082;5.426;2023-07-02T13:09:01;22.30;38.60
67890;DHT22;54685;52.082;5.426;2023-07-02T13:11:28;22.40;38.00
67890;DHT22;54685;52.082;5.426;2023-07-02T13:13:54;22.30;38.00
67890;DHT22;54685;52.082;5.426;2023-07-02T13:16:21;22.10;39.10
67890;DHT22;54685;52.082;5.426;2023-07-02T13:18:48;22.20;38.70
67890;DHT22;54685;52.082;5.426;2023-07-02T13:21:15;22.30;39.20
67890;DHT22;54685;52.082;5.426;2023-07-02T13:23:45;22.30;39.50
67890;DHT22;54685;52.082;5.426;2023-07-02T13:26:12;22.30;39.10
67890;DHT22;54685;52.082;5.426;2023-07-02T13:28:39;22.30;39.00
67890;DHT22;54685;52.082;5.426;2023-07-02T13:31:06;22.10;39.30
67890;DHT22;54685;52.082;5.426;2023-07-02T13:33:34;22.30;39.70
67890;DHT22;54685;52.082;5.426;2023-07-02T13:36:01;22.40;40.00
67890;DHT22;54685;52.082;5.426;2023-07-02T13:38:28;22.50;40.60
67890;DHT22;54685;52.082;5.426;2023-07-02T13:40:55;22.60;39.30
67890;DHT22;54685;52.082;5.426;2023-07-02T13:43:21;22.70;39.10
67890;DHT22;54685;52.082;5.426;2023-07-02T13:45:48;22.70;39.30
67890;DHT22;54685;52.082;5.426;2023-07-02T13:48:16;22.60;39.30
67890;DHT22;54685;52.082;5.426;2023-07-02T13:50:43;22.50;38.10
67890;DHT22;54685;52.082;5.426;2023-07-02T13:53:10;22.50;38.80
67890;DHT22;54685;52.082;5.426;2023-07-02T13:55:36;22.40;38.70
67890;DHT22;54685;52.082;5.426;2023-07-02T13:58:03;22.30;40.00
67890;DHT22;54685;52.082;5.426;2023-07-02T14:00:30;22.40;40.00
67890;DHT22;54685;52.082;5.426;2023-07-02T14:02:58;22.60;40.30
67890;DHT22;54685;52.082;5.426;2023-07-02T14:05:25;22.50;39.20
67890;DHT22;54685;52.082;5.426;2023-07-02T14:07:52;22.60;39.60
67890;DHT22;54685;52.082;5.426;2023-07-02T14:10:19;22.70;39.10
67890;DHT22;54685;52.082;5.426;2023-07-02T14:12:46;22.40;37.80
67890;DHT22;54685;52.082;5.426;2023-07-02T14:15:13;22.20;39.60
67890;DHT22;54685;52.082;5.426;2023-07-02T14:17:40;22.30;39.20
67890;DHT22;54685;52.082;5.426;2023-07-02T14:20:08;22.30;39.00
67890;DHT22;54685;52.082;5.426;2023-07-02T14:22:35;22.30;39.10
67890;DHT22;54685;52.082;5.426;2023-07-02T14:25:02;22.20;39.60
67890;DHT22;54685;52.082;5.426;2023-07-02T14:27:29;22.00;39.50
67890;DHT22;54685;52.082;5.426;2023-07-02T14:29:56;21.50;37.60
67890;DHT22;54685;52.082;5.426;2023-07-02T14:32:23;21.40;39.20
67890;DHT22;54685;52.082;5.426;2023-07-02T14:34:50;21.40;39.20
67890;DHT22;54685;52.082;5.426;2023-07-02T14:37:17;21.40;39.20
67890;DHT22;54685;52.082;5.426;2023-07-02T14:39:44;21.60;40.00
67890;DHT22;54685;52.082;5.426;2023-07-02T14:42:23;21.80;39.00
67890;DHT22;54685;52.082;5.426;2023-07-02T14:44:49;22.00;39.60
67890;DHT22;54685;52.082;5.426;2023-07-02T14:47:16;22.20;39.60
67890;DHT22;54685;52.082;5.426;2023-07-02T14:49:44;21.90;38.30
67890;DHT22;54685;52.082;5.426;2023-07-02T14:52:10;21.80;39.40
67890;DHT22;54685;52.082;5.426;2023-07-02T14:54:39;22.00;39.90
67890;DHT22;54685;52.082;5.426;2023-07-02T14:57:06;22.10;40.20
67890;DHT22;54685;52.082;5.426;2023-07-02T14:59:32;22.30;37.80
67890;DHT22;54685;52.082;5.426;2023-07-02T15:01:59;22.20;37.80
67890;DHT22;54685;52.082;5.426;2023-07-02T15:04:27;22.30;38.50
67890;DHT22;54685;52.082;5.426;2023-07-02T15:06:56;22.30;38.00
67890;DHT22;54685;52.082;5.426;2023-07-02T15:09:23;22.20;37.70
67890;DHT22;54685;52.082;5.426;2023-07-02T15:11:49;22.20;38.40
67890;DHT22;54685;52.082;5.426;2023-07-02T15:14:16;22.10;38.20
67890;DHT22;54685;52.082;5.426;2023-07-02T15:16:43;22.20;38.90
67890;DHT22;54685;52.082;5.426;2023-07-02T15:19:10;22.20;38.30
67890;DHT22;54685;52.082;5.426;2023-07-02T15:21:39;22.20;38.20
67890;DHT22;54685;52.082;5.426;2023-07-02T15:24:06;22.00;37.90
67890;DHT22;54685;52.082;5.426;2023-07-02T15:26:33;22.00;37.80
67890;DHT22;54685;52.082;5.426;2023-07-02T15:29:00;22.00;37.60
67890;DHT22;54685;52.082;5.426;2023-07-02T15:31:26;22.00;38.60
67890;DHT22;54685;52.082;5.426;2023-07-02T15:33:53;21.90;38.70